West Olive, MI (49460)

4:28 PM EST on February 13, 2016 (GMT -0500)
US31 & Croswell st | | Change Station
CLOSE
Current Station
Personal Weather Station
Location: West Olive, MI
Elevation: 642 ft
Nearby Weather Stations

Elev 642 ft 42.92 °N, 86.14 °W | Updated 11 seconds ago

Snow
Snow
15.4 °F
Feels Like 15 °F
N
0.0
Wind Variable Wind from NW
Gusts 2.0 mph

Today
High -- | Low -- °F
--% Chance of Precip.
Yesterday
High -- | Low -- °F
Precip. -- in
Pressure 30.52 in
Visibility 6.0 miles
Clouds Few 2800 ft
Overcast 3700 ft
Windchill 15 °F
Dew Point 10 °F
Humidity 80%
Rainfall in
Snow Depth Not available.
7:45 AM 6:12 PM
Waxing Crescent, 34% visible
METAR KBIV 132053Z AUTO 30012G16KT 6SM -SN FEW028 OVC037 M09/M16 A3048 RMK AO2 SNE01B44 SLP335 P0000 60000 T10941156 56004
Pressure 30.52 in
Visibility 6.0 miles
Clouds Few 2800 ft
Overcast 3700 ft
Windchill 15 °F
Dew Point 10 °F
Humidity 80%
Rainfall in
Snow Depth Not available.
7:45 AM 6:12 PM
Waxing Crescent, 34% visible
METAR KBIV 132053Z AUTO 30012G16KT 6SM -SN FEW028 OVC037 M09/M16 A3048 RMK AO2 SNE01B44 SLP335 P0000 60000 T10941156 56004

10-Day Weather Forecast

Almanac

Astronomy

Feb. 13, 2016 Rise Set
Actual Time
Civil Twilight
Nautical Twilight
Astronomical Twilight
Moon
Length of Visible Light
Length of Day
Tomorrow will be .
, % of the Moon is Illuminated

Today's Extremes

State Highs State Lows

Community

WunderPhotos

Upload Photos

1,892,670 photos uploaded!

WunderBlog® & News

Nearby

Air Quality

  Air Quality AQ Index Pollutant
Not available.

Snow Depth

Station Depth Elevation

Earthquake Activity

City Distance Mag. Time & Date
Minimum magnitude displayed is 2.5.

Coastal Water Temperatures

Place Temperature

Stations

Nearby Weather Stations

Station Location Temp. Windchill Dew Point Humidity Wind Precip. Elev Updated Type
                   

Watches & Warnings

There are currently no watches in effect.